Ronks, Pennsylvania
Current Conditions -  °F | °C
As of 7:53 AM on Saturday 25 Oct 2014 (Local Time) from KLNS Reporting Station
Clear Clear  
Wind Chill: 40°   Ceiling: Unl
Heat Index: 43°   Visibility: 9mi
Dew Point: 37°   Wind: 5mph
Humidity: 80%   Direction: 290°WNW
Pressure: 29.92"   Gusts: NA
Location:  40.03°N, 76.17°W
Report Text: KLNS 251153Z 29004KT 9SM CLR 06/03 A2992 RMK AO2 SLP133 T00610028 10083 20056 56000
Loading
Personal Weather Stations






























Interactive Weather Map New forecast layout! Learn more

10-Day Weather Forecast

Advertisements
Track Severe Weather on mobile